Kindred, North Dakota
Current Conditions -  °F | °C
As of 11:53 PM on Tuesday 21 Oct 2014 (Local Time) from KFAR Reporting Station
Clear Clear  
Wind Chill: 56°   Ceiling: Unl
Heat Index: 56°   Visibility: 10mi
Dew Point: 41°   Wind: 22mph
Humidity: 57%   Direction: 150°SSE
Pressure: 29.91"   Gusts: 37mph
Location:  46.65°N, 97.02°W
Report Text: KFAR 220453Z 15019G32KT 10SM CLR 13/05 A2991 RMK AO2 PK WND 15035/0358 SLP129 T01330050
Loading
Personal Weather Stations






























Interactive Weather Map
Tropical Storm Tracking
New forecast layout! Learn more

10-Day Weather Forecast

Advertisements
Track Severe Weather on mobile